Round Mountain, Nevada
Current Conditions -  °F | °C
As of 8:56 PM on Monday 20 Oct 2014 (Local Time) from KTPH Reporting Station
Clear Clear  
Wind Chill: 59°   Ceiling: Unl
Heat Index: 59°   Visibility: 10mi
Dew Point: 30°   Wind: 10mph
Humidity: 33%   Direction: 190°S
Pressure: 29.95"   Gusts: NA
Location:  38.71°N, 117.07°W
Report Text: KTPH 210356Z AUTO 19009KT 10SM CLR 15/M01 A2995 RMK AO2 SLP096 T01501011
Loading
Personal Weather Stations






























Interactive Weather Map
Tropical Storm Tracking
New forecast layout! Learn more

10-Day Weather Forecast

Advertisements
Track Severe Weather on mobile